Whitefield, United Kingdom
Current Conditions -  °F | °C
As of 1:20 AM on Wednesday 28 Jan 2015 (Local Time) from EGCC Reporting Station
Overcast Overcast  
Wind Chill: 37°   Ceiling: 2000
Heat Index: 43°   Visibility: 6mi
Dew Point: 39°   Wind: 10mph
Humidity: 87%   Direction: 210°SSW
Pressure: 29.85"   Gusts: NA
Location:  53.55°N, 2.29°W
Report Text: EGCC 280120Z AUTO 21009KT 9999 OVC020 06/04 Q1011
Loading
Personal Weather Stations






























Interactive Weather Map New forecast layout! Learn more

10-Day Weather Forecast

Advertisements
Track Severe Weather on mobile